createdAt,value
2022-11-03T00:01:47.809Z,7.82
2022-11-03T00:04:19.141Z,7.81
2022-11-03T00:06:49.785Z,7.73
2022-11-03T00:09:23.334Z,7.68
2022-11-03T00:11:52.048Z,7.58
2022-11-03T00:14:19.665Z,7.49
2022-11-03T00:16:47.455Z,7.46
2022-11-03T00:19:17.689Z,7.46
2022-11-03T00:21:45.424Z,7.57
2022-11-03T00:24:13.183Z,7.58
2022-11-03T00:26:40.587Z,7.50
2022-11-03T00:29:13.153Z,7.44
2022-11-03T00:31:43.130Z,7.37
2022-11-03T00:34:11.146Z,7.30
2022-11-03T00:36:41.049Z,7.34
2022-11-03T00:39:08.446Z,7.31
2022-11-03T00:41:36.178Z,7.29
2022-11-03T00:44:03.639Z,7.26
2022-11-03T00:46:30.705Z,7.23
2022-11-03T00:48:58.033Z,7.16
2022-11-03T00:51:34.412Z,7.10
2022-11-03T00:54:03.811Z,7.08
2022-11-03T00:56:35.953Z,7.05
2022-11-03T00:59:06.903Z,7.11
2022-11-03T01:01:46.535Z,7.16
2022-11-03T01:04:36.579Z,7.13
2022-11-03T01:07:05.245Z,7.16
2022-11-03T01:09:38.539Z,7.12
2022-11-03T01:12:05.897Z,7.15
2022-11-03T01:14:46.821Z,7.12
2022-11-03T01:17:22.565Z,7.12
2022-11-03T01:19:52.535Z,7.13
2022-11-03T01:22:20.330Z,7.14
2022-11-03T01:24:47.809Z,7.13
2022-11-03T01:27:17.597Z,7.15
2022-11-03T01:29:44.875Z,7.14
2022-11-03T01:32:12.692Z,7.16
2022-11-03T01:34:42.622Z,7.13
2022-11-03T01:37:09.703Z,7.09
2022-11-03T01:39:37.131Z,7.14
2022-11-03T01:42:04.440Z,7.13
2022-11-03T01:44:35.665Z,7.08
2022-11-03T01:47:31.792Z,7.08
2022-11-03T01:50:12.444Z,7.02
2022-11-03T01:52:51.306Z,7.02
2022-11-03T01:55:32.719Z,6.97
2022-11-03T01:58:07.399Z,6.93
2022-11-03T02:00:36.141Z,6.93
2022-11-03T02:03:04.789Z,6.91
2022-11-03T02:05:32.554Z,6.94
2022-11-03T02:08:02.435Z,6.93
2022-11-03T02:10:29.642Z,6.92
2022-11-03T02:12:59.475Z,6.87
2022-11-03T02:15:27.636Z,6.85
2022-11-03T02:17:56.932Z,6.81
2022-11-03T02:20:27.101Z,6.79
2022-11-03T02:23:12.350Z,6.77
2022-11-03T02:25:52.947Z,6.71
2022-11-03T02:28:23.453Z,6.70
2022-11-03T02:31:08.977Z,6.67
2022-11-03T02:33:42.174Z,6.66
2022-11-03T02:36:12.590Z,6.62
2022-11-03T02:38:47.458Z,6.58
2022-11-03T02:41:16.311Z,6.61
2022-11-03T02:43:45.858Z,6.56
2022-11-03T02:46:17.211Z,6.55
2022-11-03T02:48:44.282Z,6.55
2022-11-03T02:51:11.512Z,6.54
2022-11-03T02:54:10.268Z,6.48
2022-11-03T02:56:52.914Z,6.40
2022-11-03T02:59:27.863Z,6.29
2022-11-03T03:02:05.836Z,6.18
2022-11-03T03:04:55.510Z,6.09
2022-11-03T03:07:26.606Z,6.03
2022-11-03T03:10:02.487Z,6.00
2022-11-03T03:12:32.147Z,5.98
2022-11-03T03:15:01.659Z,5.93
2022-11-03T03:17:49.362Z,5.89
2022-11-03T03:20:22.626Z,5.85
2022-11-03T03:23:00.781Z,5.85
2022-11-03T03:25:36.204Z,5.86
2022-11-03T03:28:10.521Z,5.92
2022-11-03T03:30:39.154Z,5.94
2022-11-03T03:33:08.776Z,6.00
2022-11-03T03:35:40.381Z,5.99
2022-11-03T03:38:13.546Z,6.03
2022-11-03T03:40:44.176Z,6.05
2022-11-03T03:43:17.402Z,6.04
2022-11-03T03:45:46.169Z,6.01
2022-11-03T03:48:13.634Z,6.00
2022-11-03T03:50:42.822Z,6.06
2022-11-03T03:53:13.251Z,6.07
2022-11-03T03:55:42.745Z,6.05
2022-11-03T03:58:13.108Z,6.08
2022-11-03T04:00:40.434Z,6.09
2022-11-03T04:03:14.891Z,6.10
2022-11-03T04:05:41.831Z,6.09
2022-11-03T04:08:09.653Z,6.04
2022-11-03T04:10:36.801Z,5.95
2022-11-03T04:13:23.586Z,5.89
2022-11-03T04:16:09.558Z,5.79
2022-11-03T04:18:55.326Z,5.70
2022-11-03T04:21:57.722Z,5.64
2022-11-03T04:24:27.544Z,5.60
2022-11-03T04:27:00.936Z,5.59
2022-11-03T04:29:29.464Z,5.59
2022-11-03T04:31:57.264Z,5.57
2022-11-03T04:34:25.166Z,5.52
2022-11-03T04:36:52.094Z,5.47
2022-11-03T04:39:20.407Z,5.43
2022-11-03T04:41:48.351Z,5.36
2022-11-03T04:44:16.850Z,5.31
2022-11-03T04:46:45.943Z,5.30
2022-11-03T04:49:21.976Z,5.27
2022-11-03T04:51:50.300Z,5.30
2022-11-03T04:54:22.524Z,5.36
2022-11-03T04:56:49.891Z,5.47
2022-11-03T04:59:17.373Z,5.54
2022-11-03T05:01:47.155Z,5.55
2022-11-03T05:04:16.599Z,5.58
2022-11-03T05:06:52.684Z,5.63
2022-11-03T05:09:27.726Z,5.65
2022-11-03T05:11:54.839Z,5.70
2022-11-03T05:14:27.870Z,5.75
2022-11-03T05:16:56.314Z,5.83
2022-11-03T05:19:28.991Z,5.88
2022-11-03T05:21:59.154Z,5.94
2022-11-03T05:24:27.024Z,5.99
2022-11-03T05:26:56.864Z,6.04
2022-11-03T05:29:38.881Z,6.06
2022-11-03T05:32:16.888Z,6.13
2022-11-03T05:34:47.340Z,6.18
2022-11-03T05:37:27.976Z,6.24
2022-11-03T05:39:58.662Z,6.34
2022-11-03T05:42:34.010Z,6.40
2022-11-03T05:45:04.767Z,6.47
2022-11-03T05:47:37.518Z,6.52
2022-11-03T05:50:22.300Z,6.56
2022-11-03T05:52:52.818Z,6.59
2022-11-03T05:55:30.623Z,6.65
2022-11-03T05:58:00.175Z,6.69
2022-11-03T06:00:31.260Z,6.76
2022-11-03T06:02:59.489Z,6.76
2022-11-03T06:05:29.556Z,6.91
2022-11-03T06:08:00.631Z,6.98
2022-11-03T06:10:31.373Z,7.02
2022-11-03T06:13:09.507Z,7.15
2022-11-03T06:15:37.700Z,7.13
2022-11-03T06:18:16.341Z,7.26
2022-11-03T06:20:54.866Z,7.37
2022-11-03T06:23:23.482Z,7.42
2022-11-03T06:25:55.712Z,7.52
2022-11-03T06:28:30.525Z,7.59
2022-11-03T06:30:57.988Z,7.68
2022-11-03T06:33:33.381Z,7.69
2022-11-03T06:36:21.176Z,7.79
2022-11-03T06:38:55.296Z,7.79
2022-11-03T06:41:29.885Z,7.85
2022-11-03T06:44:02.534Z,7.88
2022-11-03T06:46:30.903Z,7.92
2022-11-03T06:49:00.650Z,7.90
2022-11-03T06:51:29.637Z,7.96
2022-11-03T06:54:01.686Z,7.97
2022-11-03T06:56:32.029Z,7.97
2022-11-03T06:58:59.046Z,8.05
2022-11-03T07:01:31.256Z,8.08
2022-11-03T07:04:30.079Z,8.21
2022-11-03T07:07:03.115Z,8.24
2022-11-03T07:09:30.251Z,8.26
2022-11-03T07:11:59.939Z,8.25
2022-11-03T07:14:33.219Z,8.25
2022-11-03T07:17:05.748Z,8.27
2022-11-03T07:19:42.577Z,8.29
2022-11-03T07:22:18.633Z,8.34
2022-11-03T07:24:51.772Z,8.48
2022-11-03T07:27:34.888Z,8.61
2022-11-03T07:30:22.854Z,8.69
2022-11-03T07:32:53.351Z,8.86
2022-11-03T07:35:53.411Z,9.02
2022-11-03T07:38:22.516Z,9.18
2022-11-03T07:40:51.678Z,9.28
2022-11-03T07:43:25.252Z,9.25
2022-11-03T07:45:53.776Z,9.30
2022-11-03T07:48:33.802Z,9.31
2022-11-03T07:51:22.327Z,9.51
2022-11-03T07:53:56.656Z,9.68
2022-11-03T07:56:29.156Z,9.67
2022-11-03T07:59:04.780Z,9.72
2022-11-03T08:01:36.905Z,9.81
2022-11-03T08:04:07.078Z,9.92
2022-11-03T08:06:34.464Z,10.01
2022-11-03T08:09:02.099Z,10.20
2022-11-03T08:11:29.833Z,10.41
2022-11-03T08:13:57.850Z,11.31
2022-11-03T08:16:24.824Z,11.95
2022-11-03T08:18:52.267Z,12.20
2022-11-03T08:21:19.345Z,12.37
2022-11-03T08:23:47.783Z,12.76
2022-11-03T08:26:17.475Z,12.77
2022-11-03T08:28:44.877Z,13.14
2022-11-03T08:31:13.160Z,13.42
2022-11-03T08:33:43.693Z,13.71
2022-11-03T08:36:11.180Z,13.82
2022-11-03T08:38:39.537Z,14.20
2022-11-03T08:41:06.582Z,14.59
2022-11-03T08:43:33.897Z,14.36
2022-11-03T08:46:08.140Z,14.24
2022-11-03T08:48:40.348Z,14.18
2022-11-03T08:51:10.363Z,14.17
2022-11-03T08:53:40.513Z,14.07
2022-11-03T08:56:10.528Z,14.11
2022-11-03T08:58:40.222Z,14.09
2022-11-03T09:01:09.683Z,14.26
2022-11-03T09:03:37.056Z,14.19
2022-11-03T09:06:04.282Z,14.33
2022-11-03T09:11:18.727Z,14.45
2022-11-03T09:13:46.055Z,14.51
2022-11-03T09:16:13.130Z,14.53
2022-11-03T09:18:40.127Z,14.58
2022-11-03T09:21:08.971Z,14.68
2022-11-03T09:23:37.269Z,14.89
2022-11-03T09:26:06.736Z,14.95
2022-11-03T09:28:33.737Z,15.17
2022-11-03T09:31:01.054Z,15.37
2022-11-03T09:33:28.039Z,15.03
2022-11-03T09:35:55.539Z,15.22
2022-11-03T09:38:22.659Z,15.32
2022-11-03T09:40:49.968Z,15.34
2022-11-03T09:43:17.175Z,15.45
2022-11-03T09:45:44.490Z,15.52
2022-11-03T09:48:12.891Z,15.72
2022-11-03T09:50:40.540Z,15.69
2022-11-03T09:53:12.055Z,15.69
2022-11-03T09:55:39.993Z,15.70
2022-11-03T09:58:17.466Z,15.69
2022-11-03T10:00:45.605Z,15.57
2022-11-03T10:03:14.899Z,15.56
2022-11-03T10:05:45.070Z,15.83
2022-11-03T10:08:31.475Z,15.66
2022-11-03T10:11:00.492Z,15.46
2022-11-03T10:13:39.064Z,15.46
2022-11-03T10:16:09.237Z,15.57
2022-11-03T10:18:37.613Z,15.69
2022-11-03T10:21:07.519Z,15.65
2022-11-03T10:23:34.870Z,15.49
2022-11-03T10:26:19.754Z,15.70
2022-11-03T10:31:54.254Z,15.70
2022-11-03T10:34:42.034Z,15.72
2022-11-03T10:37:22.807Z,15.87
2022-11-03T10:39:53.010Z,15.89
2022-11-03T10:42:35.196Z,16.06
2022-11-03T10:45:32.568Z,16.11
2022-11-03T10:48:02.022Z,16.18
2022-11-03T10:50:29.466Z,16.23
2022-11-03T10:52:57.618Z,16.30
2022-11-03T10:55:25.747Z,16.27
2022-11-03T10:57:55.908Z,16.13
2022-11-03T11:00:24.370Z,16.23
2022-11-03T11:02:58.717Z,16.07
2022-11-03T11:05:26.427Z,16.12
2022-11-03T11:07:54.512Z,16.27
2022-11-03T11:10:27.079Z,16.11
2022-11-03T11:13:13.775Z,16.15
2022-11-03T11:16:28.993Z,16.20
2022-11-03T11:18:55.920Z,16.43
2022-11-03T11:21:25.124Z,16.64
2022-11-03T11:23:54.555Z,16.53
2022-11-03T11:26:32.155Z,16.44
2022-11-03T11:29:08.515Z,16.57
2022-11-03T11:31:39.497Z,16.42
2022-11-03T11:34:09.313Z,16.49
2022-11-03T11:36:41.925Z,16.43
2022-11-03T11:39:15.329Z,16.47
2022-11-03T11:42:05.657Z,16.52
2022-11-03T11:44:54.899Z,16.55
2022-11-03T11:47:27.231Z,16.46
2022-11-03T11:50:12.208Z,16.49
2022-11-03T11:52:46.305Z,16.52
2022-11-03T11:55:33.842Z,16.55
2022-11-03T11:58:04.759Z,16.52
2022-11-03T12:00:34.940Z,16.50
2022-11-03T12:03:05.956Z,16.56
2022-11-03T12:05:35.980Z,16.62
2022-11-03T12:08:17.492Z,16.69
2022-11-03T12:10:53.435Z,16.77
2022-11-03T12:13:44.570Z,16.79
2022-11-03T12:16:30.608Z,16.83
2022-11-03T12:19:18.387Z,16.79
2022-11-03T12:21:52.121Z,16.81
2022-11-03T12:24:32.253Z,16.79
2022-11-03T12:27:00.388Z,16.68
2022-11-03T12:29:30.247Z,16.75
2022-11-03T12:31:57.299Z,16.83
2022-11-03T12:34:24.228Z,16.90
2022-11-03T12:36:56.342Z,16.85
2022-11-03T12:39:23.638Z,16.91
2022-11-03T12:41:50.830Z,16.94
2022-11-03T12:44:18.169Z,16.93
2022-11-03T12:46:45.280Z,16.83
2022-11-03T12:49:12.265Z,16.88
2022-11-03T12:51:39.636Z,16.92
2022-11-03T12:54:06.752Z,16.94
2022-11-03T12:56:36.358Z,16.95
2022-11-03T12:59:05.585Z,16.95
2022-11-03T13:01:35.887Z,16.92
2022-11-03T13:04:05.190Z,17.02
2022-11-03T13:06:33.261Z,17.02
2022-11-03T13:09:00.951Z,17.04
2022-11-03T13:11:49.309Z,16.99
2022-11-03T13:14:18.736Z,16.98
2022-11-03T13:16:46.185Z,16.97
2022-11-03T13:19:13.394Z,16.88
2022-11-03T13:21:45.406Z,16.92
2022-11-03T13:24:12.371Z,16.85
2022-11-03T13:26:39.652Z,16.88
2022-11-03T13:29:06.648Z,16.82
2022-11-03T13:31:35.852Z,16.79
2022-11-03T13:34:02.883Z,16.67
2022-11-03T13:36:32.679Z,16.56
2022-11-03T13:38:59.700Z,16.61
2022-11-03T13:41:27.009Z,16.57
2022-11-03T13:43:54.003Z,16.59
2022-11-03T13:46:21.374Z,16.51
2022-11-03T13:51:37.899Z,16.50
2022-11-03T13:59:39.254Z,16.35
2022-11-03T14:04:53.815Z,16.26
2022-11-03T14:07:21.092Z,16.20
2022-11-03T14:09:48.180Z,16.16
2022-11-03T14:12:34.853Z,16.09
2022-11-03T14:15:13.290Z,16.06
2022-11-03T14:17:41.347Z,16.02
2022-11-03T14:20:12.324Z,16.01
2022-11-03T14:22:40.870Z,15.93
2022-11-03T14:25:08.553Z,15.85
2022-11-03T14:27:36.090Z,15.79
2022-11-03T14:30:04.283Z,15.76
2022-11-03T14:32:31.594Z,15.74
2022-11-03T14:34:58.651Z,15.71
2022-11-03T14:37:30.405Z,15.64
2022-11-03T14:39:57.341Z,15.61
2022-11-03T14:42:24.972Z,15.54
2022-11-03T14:47:23.050Z,15.39
2022-11-03T14:49:50.531Z,15.38
2022-11-03T14:52:19.747Z,15.34
2022-11-03T14:54:47.102Z,15.30
2022-11-03T14:57:14.082Z,15.25
2022-11-03T14:59:41.874Z,15.29
2022-11-03T15:02:09.260Z,15.28
2022-11-03T15:04:39.099Z,15.18
2022-11-03T15:07:06.112Z,15.14
2022-11-03T15:09:35.715Z,15.05
2022-11-03T15:12:04.454Z,15.05
2022-11-03T15:14:31.513Z,14.99
2022-11-03T15:16:58.782Z,14.98
2022-11-03T15:19:26.062Z,14.92
2022-11-03T15:21:53.351Z,14.79
2022-11-03T15:27:09.979Z,14.69
2022-11-03T15:29:37.680Z,14.81
2022-11-03T15:32:05.036Z,14.78
2022-11-03T15:34:32.454Z,14.74
2022-11-03T15:37:01.855Z,14.68
2022-11-03T15:39:29.922Z,14.73
2022-11-03T15:41:57.665Z,14.71
2022-11-03T15:44:24.975Z,14.72
2022-11-03T15:46:52.014Z,14.74
2022-11-03T15:49:19.251Z,14.70
2022-11-03T15:51:46.922Z,14.66
2022-11-03T15:54:14.825Z,14.62
2022-11-03T15:56:42.017Z,14.54
2022-11-03T15:59:09.994Z,14.45
2022-11-03T16:01:37.518Z,14.49
2022-11-03T16:04:05.141Z,14.43
2022-11-03T16:07:06.129Z,14.36
2022-11-03T16:09:21.044Z,14.32
2022-11-03T16:11:48.600Z,14.40
2022-11-03T16:14:16.024Z,14.29
2022-11-03T16:16:43.934Z,14.21
2022-11-03T16:19:12.009Z,14.18
2022-11-03T16:21:41.977Z,14.05
2022-11-03T16:24:09.807Z,14.06
2022-11-03T16:26:37.627Z,14.01
2022-11-03T16:29:05.184Z,13.94
2022-11-03T16:31:33.190Z,13.91
2022-11-03T16:34:01.001Z,13.94
2022-11-03T16:36:28.917Z,13.85
2022-11-03T16:38:56.543Z,13.86
2022-11-03T16:41:24.653Z,13.93
2022-11-03T16:43:55.236Z,13.89
2022-11-03T16:46:23.333Z,13.83
2022-11-03T16:48:51.520Z,13.76
2022-11-03T16:51:19.685Z,13.85
2022-11-03T16:53:47.598Z,13.74
2022-11-03T16:56:19.479Z,13.77
2022-11-03T16:58:48.973Z,13.82
2022-11-03T17:01:17.310Z,13.86
2022-11-03T17:03:44.840Z,13.94
2022-11-03T17:06:13.149Z,14.05
2022-11-03T17:08:52.888Z,13.96
2022-11-03T17:11:38.366Z,13.88
2022-11-03T17:14:09.113Z,13.80
2022-11-03T17:16:40.256Z,13.86
2022-11-03T17:19:08.043Z,13.83
2022-11-03T17:21:37.178Z,13.73
2022-11-03T17:24:07.771Z,13.79
2022-11-03T17:26:46.797Z,13.83
2022-11-03T17:29:19.625Z,13.78
2022-11-03T17:31:49.166Z,13.72
2022-11-03T17:34:22.102Z,13.65
2022-11-03T17:36:50.696Z,13.67
2022-11-03T17:39:22.037Z,13.60
2022-11-03T17:41:49.879Z,13.56
2022-11-03T17:44:19.088Z,13.53
2022-11-03T17:46:47.583Z,13.61
2022-11-03T17:49:17.428Z,13.68
2022-11-03T17:51:47.194Z,13.69
2022-11-03T17:54:17.168Z,13.77
2022-11-03T17:56:46.468Z,13.77
2022-11-03T17:59:16.490Z,13.80
2022-11-03T18:01:47.459Z,13.78
2022-11-03T18:04:16.040Z,13.70
2022-11-03T18:06:45.954Z,13.47
2022-11-03T18:09:14.256Z,13.23
2022-11-03T18:12:02.049Z,13.04
2022-11-03T18:14:30.718Z,12.78
2022-11-03T18:16:59.486Z,12.68
2022-11-03T18:19:29.345Z,12.60
2022-11-03T18:22:01.139Z,12.54
2022-11-03T18:24:30.085Z,12.44
2022-11-03T18:27:00.741Z,12.34
2022-11-03T18:29:29.739Z,12.30
2022-11-03T18:31:58.995Z,12.25
2022-11-03T18:34:28.673Z,12.22
2022-11-03T18:36:57.272Z,12.22
2022-11-03T18:39:28.307Z,12.19
2022-11-03T18:41:59.028Z,12.16
2022-11-03T18:44:29.429Z,12.15
2022-11-03T18:46:59.292Z,12.10
2022-11-03T18:49:29.841Z,12.10
2022-11-03T18:52:03.837Z,12.12
2022-11-03T18:54:35.803Z,12.09
2022-11-03T18:57:04.615Z,12.10
2022-11-03T18:59:37.890Z,12.06
2022-11-03T19:02:32.533Z,12.04
2022-11-03T19:05:01.635Z,12.02
2022-11-03T19:07:32.361Z,11.98
2022-11-03T19:10:05.345Z,11.96
2022-11-03T19:12:39.149Z,11.91
2022-11-03T19:15:10.759Z,11.88
2022-11-03T19:17:40.255Z,11.90
2022-11-03T19:20:19.450Z,11.91
2022-11-03T19:22:48.439Z,11.81
2022-11-03T19:25:19.752Z,11.80
2022-11-03T19:27:50.696Z,11.71
2022-11-03T19:30:24.145Z,11.73
2022-11-03T19:32:57.835Z,11.68
2022-11-03T19:35:36.437Z,11.65
2022-11-03T19:38:10.799Z,11.60
2022-11-03T19:41:00.043Z,11.51
2022-11-03T19:43:34.197Z,11.49
2022-11-03T19:46:05.162Z,11.38
2022-11-03T19:48:35.481Z,11.33
2022-11-03T19:51:09.426Z,11.29
2022-11-03T19:53:38.277Z,11.27
2022-11-03T19:56:08.976Z,11.23
2022-11-03T19:58:37.286Z,11.21
2022-11-03T20:01:09.459Z,11.17
2022-11-03T20:03:39.182Z,11.11
2022-11-03T20:06:12.160Z,11.05
2022-11-03T20:08:47.871Z,10.99
2022-11-03T20:11:16.395Z,10.98
2022-11-03T20:13:49.359Z,10.98
2022-11-03T20:16:18.755Z,10.94
2022-11-03T20:18:49.492Z,10.88
2022-11-03T20:21:22.940Z,10.87
2022-11-03T20:23:51.905Z,10.79
2022-11-03T20:26:24.282Z,10.75
2022-11-03T20:28:57.073Z,10.67
2022-11-03T20:31:26.925Z,10.66
2022-11-03T20:33:55.205Z,10.68
2022-11-03T20:36:26.353Z,10.67
2022-11-03T20:38:59.898Z,10.70
2022-11-03T20:41:29.461Z,10.69
2022-11-03T20:43:59.508Z,10.79
2022-11-03T20:46:33.863Z,10.82
2022-11-03T20:49:02.404Z,10.82
2022-11-03T20:51:48.865Z,10.88
2022-11-03T20:54:19.475Z,10.94
2022-11-03T20:56:48.071Z,11.02
2022-11-03T20:59:18.111Z,10.97
2022-11-03T21:01:48.019Z,10.94
2022-11-03T21:04:19.697Z,10.99
2022-11-03T21:06:47.740Z,10.97
2022-11-03T21:09:18.320Z,11.00
2022-11-03T21:11:47.167Z,11.07
2022-11-03T21:14:25.115Z,11.01
2022-11-03T21:17:13.884Z,11.02
2022-11-03T21:20:02.021Z,11.00
2022-11-03T21:22:55.906Z,11.02
2022-11-03T21:25:26.448Z,10.96
2022-11-03T21:28:08.585Z,10.95
2022-11-03T21:30:39.388Z,10.96
2022-11-03T21:33:07.223Z,10.96
2022-11-03T21:35:35.232Z,11.02
2022-11-03T21:38:02.994Z,11.02
2022-11-03T21:40:30.459Z,11.00
2022-11-03T21:43:16.211Z,11.09
2022-11-03T21:45:44.738Z,11.09
2022-11-03T21:48:30.897Z,11.09
2022-11-03T21:51:04.526Z,11.12
2022-11-03T21:53:31.614Z,11.14
2022-11-03T21:55:58.902Z,11.12
2022-11-03T21:58:25.967Z,11.11
2022-11-03T22:00:53.479Z,11.14
2022-11-03T22:03:20.506Z,11.14
2022-11-03T22:05:47.783Z,11.11
2022-11-03T22:08:14.759Z,11.06
2022-11-03T22:10:42.017Z,11.07
2022-11-03T22:13:09.709Z,11.03
2022-11-03T22:15:55.850Z,11.03
2022-11-03T22:18:23.084Z,11.02
2022-11-03T22:21:08.800Z,11.04
2022-11-03T22:23:54.525Z,11.02
2022-11-03T22:26:45.919Z,10.92
2022-11-03T22:29:31.401Z,10.91
2022-11-03T22:31:58.929Z,10.89
2022-11-03T22:34:44.486Z,10.90
2022-11-03T22:37:14.714Z,10.92
2022-11-03T22:40:00.407Z,10.91
2022-11-03T22:42:45.761Z,10.92
2022-11-03T22:45:31.206Z,10.85
2022-11-03T22:47:58.458Z,10.88
2022-11-03T22:50:27.951Z,10.86
2022-11-03T22:52:55.243Z,10.89
2022-11-03T22:55:23.341Z,10.88
2022-11-03T22:57:52.798Z,10.87
2022-11-03T23:00:22.012Z,10.87
2022-11-03T23:02:56.157Z,10.92
2022-11-03T23:05:25.571Z,10.91
2022-11-03T23:07:52.824Z,10.90
2022-11-03T23:10:19.951Z,10.94
2022-11-03T23:12:46.899Z,10.88
2022-11-03T23:15:32.498Z,10.91
2022-11-03T23:18:23.313Z,10.89
2022-11-03T23:21:08.772Z,10.83
2022-11-03T23:23:56.311Z,10.81
2022-11-03T23:26:27.294Z,10.79
2022-11-03T23:28:54.857Z,10.81
2022-11-03T23:31:22.622Z,10.79
2022-11-03T23:33:49.750Z,10.81
2022-11-03T23:36:18.127Z,10.83
2022-11-03T23:38:45.231Z,10.79
2022-11-03T23:41:17.341Z,10.78
2022-11-03T23:43:46.256Z,10.77
2022-11-03T23:46:34.158Z,10.69
2022-11-03T23:49:02.211Z,10.69
2022-11-03T23:51:33.504Z,10.68
2022-11-03T23:54:01.806Z,10.67
2022-11-03T23:56:48.787Z,10.66
2022-11-03T23:59:17.222Z,10.67
